Aérodrome :
LOGIN :

S'inscrire | Disclaimer

   EN    FR    IT 

 










Légende :    VFR   VFR Marginal   IFR   IFR Intensif   IFR Très Intensif
Visi : 
Plafond : 
>= 8 km
>= 3000ft
5 à 8 km
1000 à 3000 ft
1500m à 5 km
500 à 1000 ft
800 à 1500m
200 à 500 ft
< 800m
< 200 ft
Symboles :   Orages  Brouillard  Fortes neiges  Fortes précipitations  Vent > 20 kt
SIGMETs :   Divers  Orages  Givrage  Turbulence  Onde Orograph.  Cendres Volcan.







- Altitude de l'aérodrome : 458 ft
- Voir les cartes d'approche


LFSI - St-Dizier

DERNIER METAR :
  • 291730Z AUTO 12007KT 080V170 CAVOK 16/M00 Q1013

METARs EXPIRÉS :
  • 291700Z AUTO 12007KT 090V160 CAVOK 16/M00 Q1013
  • 291630Z AUTO 12006KT 080V150 CAVOK 17/M01 Q1013
  • 291600Z AUTO 12006KT 090V150 CAVOK 17/01 Q1014
  • 291530Z AUTO 10006KT 060V140 CAVOK 16/M01 Q1014
  • 291500Z AUTO VRB04KT CAVOK 17/M02 Q1014
  • 291430Z AUTO 13005KT 090V260 CAVOK 17/00 Q1015

TAF TAF LFSI
Valide du 29 à 15h jusqu'au 30 à 15h UTC


291400Z 2915/3015 VRB03KT CAVOK
BECMG 3007/3010 16015G30KT
Pas de NOTAMs connus pour ce terrain.



MET'MAP, la Météo Aéronautique d'un coup d'oeil ! - Copyright ORBIFLY Décembre 2007 - Disclaimer

ORBIFLY MET'MAP TEAM :

Programmation & Développement : Alexandra Zaïnal
Conception & Développement : Baudouin d'Aumeries
Co-Programmation & Développement : Marc-Olivier Méhu
Soutien technique & logistique : Manuel Goepfert

Contact : metmap@orbifly.com




SOURCES & CREDITS :

   NOAA